sensor_id;sensor_type;location;lat;lon;timestamp;pressure;altitude;pressure_sealevel;temperature;humidity
45991;BME280;31721;41.740;-88.000;2024-03-02T00:00:38;99148.28;;;5.29;35.01
45991;BME280;31721;41.740;-88.000;2024-03-02T00:03:07;99139.27;;;5.52;35.10
45991;BME280;31721;41.740;-88.000;2024-03-02T00:05:35;99138.59;;;5.43;35.04
45991;BME280;31721;41.740;-88.000;2024-03-02T00:08:05;99144.81;;;5.34;35.90
45991;BME280;31721;41.740;-88.000;2024-03-02T00:10:37;99142.80;;;5.45;35.16
45991;BME280;31721;41.740;-88.000;2024-03-02T00:13:06;99143.31;;;5.55;35.18
45991;BME280;31721;41.740;-88.000;2024-03-02T00:15:41;99146.08;;;5.74;35.03
45991;BME280;31721;41.740;-88.000;2024-03-02T00:18:12;99154.69;;;5.65;34.95
45991;BME280;31721;41.740;-88.000;2024-03-02T00:20:41;99155.02;;;5.83;34.78
45991;BME280;31721;41.740;-88.000;2024-03-02T00:23:12;99160.47;;;5.91;34.91
45991;BME280;31721;41.740;-88.000;2024-03-02T00:25:43;99167.87;;;5.30;35.56
45991;BME280;31721;41.740;-88.000;2024-03-02T00:28:16;99172.39;;;5.49;35.64
45991;BME280;31721;41.740;-88.000;2024-03-02T00:30:54;99165.11;;;5.40;35.59
45991;BME280;31721;41.740;-88.000;2024-03-02T00:33:25;99165.00;;;5.82;35.20
45991;BME280;31721;41.740;-88.000;2024-03-02T00:35:54;99162.23;;;5.40;37.00
45991;BME280;31721;41.740;-88.000;2024-03-02T00:38:22;99156.86;;;5.91;35.65
45991;BME280;31721;41.740;-88.000;2024-03-02T00:40:50;99158.17;;;5.47;35.75
45991;BME280;31721;41.740;-88.000;2024-03-02T00:43:41;99160.52;;;5.16;37.11
45991;BME280;31721;41.740;-88.000;2024-03-02T00:46:11;99154.01;;;5.66;35.97
45991;BME280;31721;41.740;-88.000;2024-03-02T00:48:39;99155.09;;;5.43;36.67
45991;BME280;31721;41.740;-88.000;2024-03-02T00:51:12;99157.43;;;5.53;36.19
45991;BME280;31721;41.740;-88.000;2024-03-02T00:53:40;99155.44;;;5.54;36.17
45991;BME280;31721;41.740;-88.000;2024-03-02T00:56:11;99148.31;;;5.71;36.22
45991;BME280;31721;41.740;-88.000;2024-03-02T00:58:39;99148.26;;;5.55;36.28
45991;BME280;31721;41.740;-88.000;2024-03-02T01:01:07;99144.15;;;5.44;37.12
45991;BME280;31721;41.740;-88.000;2024-03-02T01:03:35;99139.14;;;5.28;36.90
45991;BME280;31721;41.740;-88.000;2024-03-02T01:06:05;99135.09;;;5.40;36.84
45991;BME280;31721;41.740;-88.000;2024-03-02T01:08:33;99139.90;;;5.21;36.80
45991;BME280;31721;41.740;-88.000;2024-03-02T01:11:01;99135.63;;;5.37;37.02
45991;BME280;31721;41.740;-88.000;2024-03-02T01:13:29;99137.76;;;5.34;37.15
45991;BME280;31721;41.740;-88.000;2024-03-02T01:15:58;99134.32;;;5.60;36.61
45991;BME280;31721;41.740;-88.000;2024-03-02T01:18:27;99131.52;;;5.60;36.72
45991;BME280;31721;41.740;-88.000;2024-03-02T01:20:55;99124.56;;;5.46;36.67
45991;BME280;31721;41.740;-88.000;2024-03-02T01:23:23;99121.87;;;5.52;37.06
45991;BME280;31721;41.740;-88.000;2024-03-02T01:25:52;99123.96;;;5.18;37.83
45991;BME280;31721;41.740;-88.000;2024-03-02T01:28:20;99125.32;;;5.58;36.99
45991;BME280;31721;41.740;-88.000;2024-03-02T01:30:48;99124.16;;;5.47;36.60
45991;BME280;31721;41.740;-88.000;2024-03-02T01:33:16;99125.09;;;5.42;36.95
45991;BME280;31721;41.740;-88.000;2024-03-02T01:35:45;99128.58;;;5.60;36.89
45991;BME280;31721;41.740;-88.000;2024-03-02T01:38:14;99127.39;;;5.32;36.86
45991;BME280;31721;41.740;-88.000;2024-03-02T01:40:42;99122.79;;;5.33;37.14
45991;BME280;31721;41.740;-88.000;2024-03-02T01:43:10;99121.70;;;5.31;37.08
45991;BME280;31721;41.740;-88.000;2024-03-02T01:45:38;99123.30;;;5.52;37.11
45991;BME280;31721;41.740;-88.000;2024-03-02T01:48:07;99121.99;;;5.55;37.26
45991;BME280;31721;41.740;-88.000;2024-03-02T01:50:35;99126.58;;;5.58;36.68
45991;BME280;31721;41.740;-88.000;2024-03-02T01:53:04;99130.73;;;5.50;36.94
45991;BME280;31721;41.740;-88.000;2024-03-02T01:55:31;99133.87;;;5.73;37.02
45991;BME280;31721;41.740;-88.000;2024-03-02T01:57:59;99137.48;;;5.40;37.00
45991;BME280;31721;41.740;-88.000;2024-03-02T02:00:27;99133.69;;;5.39;36.95
45991;BME280;31721;41.740;-88.000;2024-03-02T02:02:54;99129.57;;;5.32;36.97
45991;BME280;31721;41.740;-88.000;2024-03-02T02:05:22;99130.12;;;5.51;36.98
45991;BME280;31721;41.740;-88.000;2024-03-02T02:07:50;99132.21;;;5.64;36.93
45991;BME280;31721;41.740;-88.000;2024-03-02T02:10:18;99133.76;;;5.49;36.75
45991;BME280;31721;41.740;-88.000;2024-03-02T02:12:46;99133.41;;;5.55;36.99
45991;BME280;31721;41.740;-88.000;2024-03-02T02:15:23;99135.71;;;5.50;36.80
45991;BME280;31721;41.740;-88.000;2024-03-02T02:17:51;99143.30;;;5.62;36.87
45991;BME280;31721;41.740;-88.000;2024-03-02T02:20:19;99149.08;;;5.63;36.66
45991;BME280;31721;41.740;-88.000;2024-03-02T02:23:03;99156.15;;;5.68;36.64
45991;BME280;31721;41.740;-88.000;2024-03-02T02:25:31;99166.34;;;5.66;36.80
45991;BME280;31721;41.740;-88.000;2024-03-02T02:27:59;99175.79;;;5.69;37.06
45991;BME280;31721;41.740;-88.000;2024-03-02T02:30:28;99169.71;;;5.73;37.14
45991;BME280;31721;41.740;-88.000;2024-03-02T02:32:57;99168.36;;;5.16;37.67
45991;BME280;31721;41.740;-88.000;2024-03-02T02:35:25;99167.39;;;5.51;37.18
45991;BME280;31721;41.740;-88.000;2024-03-02T02:37:54;99177.72;;;5.46;37.51
45991;BME280;31721;41.740;-88.000;2024-03-02T02:40:23;99182.18;;;5.29;37.48
45991;BME280;31721;41.740;-88.000;2024-03-02T02:42:50;99183.90;;;5.35;37.42
45991;BME280;31721;41.740;-88.000;2024-03-02T02:45:18;99181.93;;;5.36;37.42
45991;BME280;31721;41.740;-88.000;2024-03-02T02:47:46;99188.53;;;5.76;37.63
45991;BME280;31721;41.740;-88.000;2024-03-02T02:50:14;99188.77;;;5.66;37.47
45991;BME280;31721;41.740;-88.000;2024-03-02T02:52:43;99192.88;;;5.21;38.80
45991;BME280;31721;41.740;-88.000;2024-03-02T02:55:11;99199.36;;;4.90;39.10
45991;BME280;31721;41.740;-88.000;2024-03-02T02:57:40;99207.14;;;5.00;38.36
45991;BME280;31721;41.740;-88.000;2024-03-02T03:00:10;99203.35;;;4.88;39.61
45991;BME280;31721;41.740;-88.000;2024-03-02T03:02:38;99204.93;;;5.42;38.45
45991;BME280;31721;41.740;-88.000;2024-03-02T03:05:07;99208.90;;;5.41;38.62
45991;BME280;31721;41.740;-88.000;2024-03-02T03:07:34;99208.66;;;5.20;38.70
45991;BME280;31721;41.740;-88.000;2024-03-02T03:10:02;99206.10;;;4.81;39.92
45991;BME280;31721;41.740;-88.000;2024-03-02T03:12:31;99206.81;;;5.14;38.93
45991;BME280;31721;41.740;-88.000;2024-03-02T03:14:59;99202.45;;;5.26;39.27
45991;BME280;31721;41.740;-88.000;2024-03-02T03:17:27;99199.45;;;5.48;39.02
45991;BME280;31721;41.740;-88.000;2024-03-02T03:19:55;99200.24;;;5.06;39.55
45991;BME280;31721;41.740;-88.000;2024-03-02T03:22:22;99200.49;;;5.29;39.05
45991;BME280;31721;41.740;-88.000;2024-03-02T03:24:50;99203.17;;;5.39;39.14
45991;BME280;31721;41.740;-88.000;2024-03-02T03:27:18;99201.95;;;5.64;39.03
45991;BME280;31721;41.740;-88.000;2024-03-02T03:29:46;99199.35;;;5.61;39.05
45991;BME280;31721;41.740;-88.000;2024-03-02T03:32:14;99196.94;;;5.42;38.71
45991;BME280;31721;41.740;-88.000;2024-03-02T03:34:42;99198.21;;;5.66;38.90
45991;BME280;31721;41.740;-88.000;2024-03-02T03:37:09;99198.70;;;5.58;39.02
45991;BME280;31721;41.740;-88.000;2024-03-02T03:39:37;99193.02;;;5.82;39.27
45991;BME280;31721;41.740;-88.000;2024-03-02T03:42:06;99192.05;;;5.38;40.49
45991;BME280;31721;41.740;-88.000;2024-03-02T03:44:34;99185.39;;;5.37;40.46
45991;BME280;31721;41.740;-88.000;2024-03-02T03:47:02;99180.28;;;5.36;39.99
45991;BME280;31721;41.740;-88.000;2024-03-02T03:49:29;99181.53;;;5.38;39.59
45991;BME280;31721;41.740;-88.000;2024-03-02T03:51:57;99183.92;;;5.24;39.78
45991;BME280;31721;41.740;-88.000;2024-03-02T03:54:24;99179.36;;;5.41;39.76
45991;BME280;31721;41.740;-88.000;2024-03-02T03:56:52;99182.73;;;5.44;39.80
45991;BME280;31721;41.740;-88.000;2024-03-02T03:59:19;99183.51;;;5.40;39.94
45991;BME280;31721;41.740;-88.000;2024-03-02T04:01:46;99177.95;;;5.33;39.92
45991;BME280;31721;41.740;-88.000;2024-03-02T04:04:14;99183.23;;;5.37;40.66
45991;BME280;31721;41.740;-88.000;2024-03-02T04:06:42;99183.72;;;5.65;40.49
45991;BME280;31721;41.740;-88.000;2024-03-02T04:09:10;99181.50;;;5.64;40.17
45991;BME280;31721;41.740;-88.000;2024-03-02T04:11:38;99181.05;;;5.33;41.00
45991;BME280;31721;41.740;-88.000;2024-03-02T04:14:05;99180.02;;;5.55;40.68
45991;BME280;31721;41.740;-88.000;2024-03-02T04:16:33;99177.46;;;5.67;40.29
45991;BME280;31721;41.740;-88.000;2024-03-02T04:19:00;99167.12;;;5.77;40.46
45991;BME280;31721;41.740;-88.000;2024-03-02T04:21:28;99168.89;;;5.63;40.75
45991;BME280;31721;41.740;-88.000;2024-03-02T04:23:55;99169.71;;;5.67;40.92
45991;BME280;31721;41.740;-88.000;2024-03-02T04:26:22;99163.72;;;5.51;40.29
45991;BME280;31721;41.740;-88.000;2024-03-02T04:28:50;99159.86;;;5.70;40.84
45991;BME280;31721;41.740;-88.000;2024-03-02T04:31:18;99156.97;;;5.58;41.14
45991;BME280;31721;41.740;-88.000;2024-03-02T04:33:46;99156.19;;;5.86;40.96
45991;BME280;31721;41.740;-88.000;2024-03-02T04:36:14;99152.58;;;5.91;41.23
45991;BME280;31721;41.740;-88.000;2024-03-02T04:38:42;99147.20;;;5.71;41.41
45991;BME280;31721;41.740;-88.000;2024-03-02T04:41:09;99144.37;;;5.74;41.86
45991;BME280;31721;41.740;-88.000;2024-03-02T04:43:37;99139.60;;;5.44;42.63
45991;BME280;31721;41.740;-88.000;2024-03-02T04:46:05;99129.41;;;5.60;41.69
45991;BME280;31721;41.740;-88.000;2024-03-02T04:48:33;99126.81;;;5.42;41.70
45991;BME280;31721;41.740;-88.000;2024-03-02T04:51:01;99124.17;;;5.21;42.89
45991;BME280;31721;41.740;-88.000;2024-03-02T04:53:29;99125.30;;;4.91;44.59
45991;BME280;31721;41.740;-88.000;2024-03-02T04:55:57;99119.06;;;4.98;42.85
45991;BME280;31721;41.740;-88.000;2024-03-02T04:58:25;99117.42;;;5.41;42.32
45991;BME280;31721;41.740;-88.000;2024-03-02T05:00:52;99119.86;;;4.79;44.17
45991;BME280;31721;41.740;-88.000;2024-03-02T05:03:20;99121.82;;;4.95;43.05
45991;BME280;31721;41.740;-88.000;2024-03-02T05:05:48;99119.74;;;5.13;42.79
45991;BME280;31721;41.740;-88.000;2024-03-02T05:08:16;99117.31;;;4.83;44.02
45991;BME280;31721;41.740;-88.000;2024-03-02T05:10:44;99121.80;;;5.35;42.79
45991;BME280;31721;41.740;-88.000;2024-03-02T05:13:12;99124.88;;;5.16;42.86
45991;BME280;31721;41.740;-88.000;2024-03-02T05:15:40;99130.43;;;5.27;43.04
45991;BME280;31721;41.740;-88.000;2024-03-02T05:18:08;99134.87;;;5.34;43.41
45991;BME280;31721;41.740;-88.000;2024-03-02T05:20:35;99136.40;;;5.46;43.22
45991;BME280;31721;41.740;-88.000;2024-03-02T05:23:03;99136.99;;;5.58;42.76
45991;BME280;31721;41.740;-88.000;2024-03-02T05:25:31;99139.54;;;5.64;42.96
45991;BME280;31721;41.740;-88.000;2024-03-02T05:27:58;99140.67;;;5.72;42.98
45991;BME280;31721;41.740;-88.000;2024-03-02T05:30:26;99140.03;;;5.62;43.22
45991;BME280;31721;41.740;-88.000;2024-03-02T05:32:54;99141.92;;;5.65;42.98
45991;BME280;31721;41.740;-88.000;2024-03-02T05:35:21;99142.62;;;5.69;42.92
45991;BME280;31721;41.740;-88.000;2024-03-02T05:37:49;99143.73;;;5.55;43.06
45991;BME280;31721;41.740;-88.000;2024-03-02T05:40:17;99150.81;;;5.67;43.26
45991;BME280;31721;41.740;-88.000;2024-03-02T05:42:45;99152.33;;;5.82;43.12
45991;BME280;31721;41.740;-88.000;2024-03-02T05:45:12;99153.55;;;5.84;43.18
45991;BME280;31721;41.740;-88.000;2024-03-02T05:47:40;99153.91;;;5.82;43.12
45991;BME280;31721;41.740;-88.000;2024-03-02T05:50:09;99159.63;;;5.76;43.19
45991;BME280;31721;41.740;-88.000;2024-03-02T05:52:36;99159.50;;;5.91;43.27
45991;BME280;31721;41.740;-88.000;2024-03-02T05:55:04;99156.38;;;5.84;43.30
45991;BME280;31721;41.740;-88.000;2024-03-02T05:57:32;99154.29;;;5.83;43.40
45991;BME280;31721;41.740;-88.000;2024-03-02T06:00:00;99157.02;;;6.21;43.55
45991;BME280;31721;41.740;-88.000;2024-03-02T06:02:27;99162.10;;;6.11;43.21
45991;BME280;31721;41.740;-88.000;2024-03-02T06:04:56;99163.89;;;6.08;43.56
45991;BME280;31721;41.740;-88.000;2024-03-02T06:07:23;99170.74;;;6.23;43.41
45991;BME280;31721;41.740;-88.000;2024-03-02T06:09:51;99168.24;;;6.11;43.14
45991;BME280;31721;41.740;-88.000;2024-03-02T06:12:18;99170.17;;;6.08;43.68
45991;BME280;31721;41.740;-88.000;2024-03-02T06:14:46;99174.94;;;6.27;43.68
45991;BME280;31721;41.740;-88.000;2024-03-02T06:17:13;99175.84;;;6.40;43.43
45991;BME280;31721;41.740;-88.000;2024-03-02T06:19:40;99175.79;;;6.31;43.32
45991;BME280;31721;41.740;-88.000;2024-03-02T06:22:09;99175.77;;;6.38;43.48
45991;BME280;31721;41.740;-88.000;2024-03-02T06:24:37;99174.83;;;6.17;43.21
45991;BME280;31721;41.740;-88.000;2024-03-02T06:27:05;99181.00;;;6.17;43.26
45991;BME280;31721;41.740;-88.000;2024-03-02T06:29:33;99184.18;;;6.20;43.52
45991;BME280;31721;41.740;-88.000;2024-03-02T06:32:01;99185.42;;;6.28;43.65
45991;BME280;31721;41.740;-88.000;2024-03-02T06:34:29;99188.96;;;6.44;43.52
45991;BME280;31721;41.740;-88.000;2024-03-02T06:36:56;99182.25;;;6.29;43.42
45991;BME280;31721;41.740;-88.000;2024-03-02T06:39:24;99177.95;;;6.07;43.45
45991;BME280;31721;41.740;-88.000;2024-03-02T06:41:52;99185.28;;;6.15;44.00
45991;BME280;31721;41.740;-88.000;2024-03-02T06:44:19;99184.59;;;6.31;43.83
45991;BME280;31721;41.740;-88.000;2024-03-02T06:46:47;99182.59;;;6.17;43.80
45991;BME280;31721;41.740;-88.000;2024-03-02T06:49:14;99184.10;;;6.19;44.05
45991;BME280;31721;41.740;-88.000;2024-03-02T06:51:42;99180.68;;;6.27;44.14
45991;BME280;31721;41.740;-88.000;2024-03-02T06:54:10;99179.57;;;6.46;43.73
45991;BME280;31721;41.740;-88.000;2024-03-02T06:56:38;99179.68;;;6.19;43.71
45991;BME280;31721;41.740;-88.000;2024-03-02T06:59:05;99178.82;;;6.09;43.83
45991;BME280;31721;41.740;-88.000;2024-03-02T07:01:33;99186.21;;;6.19;44.02
45991;BME280;31721;41.740;-88.000;2024-03-02T07:04:00;99187.75;;;6.05;44.15
45991;BME280;31721;41.740;-88.000;2024-03-02T07:06:29;99187.60;;;6.28;44.12
45991;BME280;31721;41.740;-88.000;2024-03-02T07:08:57;99186.07;;;6.06;44.20
45991;BME280;31721;41.740;-88.000;2024-03-02T07:11:24;99185.01;;;6.17;44.44
45991;BME280;31721;41.740;-88.000;2024-03-02T07:13:51;99182.79;;;6.35;44.40
45991;BME280;31721;41.740;-88.000;2024-03-02T07:16:19;99188.88;;;6.30;44.08
45991;BME280;31721;41.740;-88.000;2024-03-02T07:18:46;99184.34;;;6.14;44.41
45991;BME280;31721;41.740;-88.000;2024-03-02T07:21:13;99190.74;;;6.28;44.63
45991;BME280;31721;41.740;-88.000;2024-03-02T07:23:41;99188.30;;;6.21;44.26
45991;BME280;31721;41.740;-88.000;2024-03-02T07:26:09;99188.67;;;6.25;44.59
45991;BME280;31721;41.740;-88.000;2024-03-02T07:28:37;99190.00;;;6.14;44.46
45991;BME280;31721;41.740;-88.000;2024-03-02T07:31:05;99185.32;;;5.90;44.49
45991;BME280;31721;41.740;-88.000;2024-03-02T07:33:33;99183.57;;;6.00;44.77
45991;BME280;31721;41.740;-88.000;2024-03-02T07:36:01;99188.68;;;6.02;44.87
45991;BME280;31721;41.740;-88.000;2024-03-02T07:38:29;99198.91;;;6.36;45.25
45991;BME280;31721;41.740;-88.000;2024-03-02T07:40:56;99204.74;;;6.33;45.11
45991;BME280;31721;41.740;-88.000;2024-03-02T07:43:24;99206.41;;;6.34;45.25
45991;BME280;31721;41.740;-88.000;2024-03-02T07:45:53;99208.63;;;6.17;45.13
45991;BME280;31721;41.740;-88.000;2024-03-02T07:48:21;99205.49;;;6.19;45.21
45991;BME280;31721;41.740;-88.000;2024-03-02T07:50:49;99205.27;;;6.43;45.06
45991;BME280;31721;41.740;-88.000;2024-03-02T07:53:16;99202.12;;;6.24;45.09
45991;BME280;31721;41.740;-88.000;2024-03-02T07:55:44;99201.10;;;6.22;45.04
45991;BME280;31721;41.740;-88.000;2024-03-02T07:58:12;99203.51;;;6.31;44.98
45991;BME280;31721;41.740;-88.000;2024-03-02T08:00:40;99204.36;;;6.23;44.92
45991;BME280;31721;41.740;-88.000;2024-03-02T08:03:07;99204.46;;;6.21;45.01
45991;BME280;31721;41.740;-88.000;2024-03-02T08:05:35;99201.56;;;6.25;44.96
45991;BME280;31721;41.740;-88.000;2024-03-02T08:08:02;99199.59;;;6.32;45.33
45991;BME280;31721;41.740;-88.000;2024-03-02T08:10:30;99196.57;;;6.17;44.91
45991;BME280;31721;41.740;-88.000;2024-03-02T08:12:58;99192.99;;;6.15;45.24
45991;BME280;31721;41.740;-88.000;2024-03-02T08:15:25;99192.99;;;6.20;45.35
45991;BME280;31721;41.740;-88.000;2024-03-02T08:17:53;99188.49;;;6.17;45.47
45991;BME280;31721;41.740;-88.000;2024-03-02T08:20:21;99186.27;;;6.14;45.55
45991;BME280;31721;41.740;-88.000;2024-03-02T08:22:49;99183.83;;;6.02;45.53
45991;BME280;31721;41.740;-88.000;2024-03-02T08:25:17;99189.92;;;6.02;45.66
45991;BME280;31721;41.740;-88.000;2024-03-02T08:27:45;99189.27;;;6.05;45.83
45991;BME280;31721;41.740;-88.000;2024-03-02T08:30:13;99185.74;;;5.94;45.43
45991;BME280;31721;41.740;-88.000;2024-03-02T08:32:42;99179.67;;;5.85;45.48
45991;BME280;31721;41.740;-88.000;2024-03-02T08:35:10;99178.91;;;5.87;45.85
45991;BME280;31721;41.740;-88.000;2024-03-02T08:37:39;99172.98;;;6.05;45.93
45991;BME280;31721;41.740;-88.000;2024-03-02T08:40:08;99169.04;;;5.85;46.05
45991;BME280;31721;41.740;-88.000;2024-03-02T08:42:36;99168.25;;;5.82;45.73
45991;BME280;31721;41.740;-88.000;2024-03-02T08:45:05;99162.21;;;5.87;45.73
45991;BME280;31721;41.740;-88.000;2024-03-02T08:47:33;99163.12;;;5.83;45.92
45991;BME280;31721;41.740;-88.000;2024-03-02T08:50:02;99166.73;;;5.84;45.92
45991;BME280;31721;41.740;-88.000;2024-03-02T08:52:30;99169.55;;;5.81;45.80
45991;BME280;31721;41.740;-88.000;2024-03-02T08:54:57;99168.49;;;5.76;45.81
45991;BME280;31721;41.740;-88.000;2024-03-02T08:57:25;99168.51;;;5.62;45.83
45991;BME280;31721;41.740;-88.000;2024-03-02T08:59:53;99168.11;;;5.68;46.02
45991;BME280;31721;41.740;-88.000;2024-03-02T09:02:21;99171.20;;;5.55;46.06
45991;BME280;31721;41.740;-88.000;2024-03-02T09:04:49;99170.62;;;5.58;46.12
45991;BME280;31721;41.740;-88.000;2024-03-02T09:07:17;99175.08;;;5.56;46.21
45991;BME280;31721;41.740;-88.000;2024-03-02T09:09:45;99176.06;;;5.50;46.05
45991;BME280;31721;41.740;-88.000;2024-03-02T09:12:13;99173.69;;;5.44;46.16
45991;BME280;31721;41.740;-88.000;2024-03-02T09:14:41;99174.89;;;5.39;46.26
45991;BME280;31721;41.740;-88.000;2024-03-02T09:17:08;99180.19;;;5.33;46.28
45991;BME280;31721;41.740;-88.000;2024-03-02T09:19:36;99183.19;;;5.29;46.22
45991;BME280;31721;41.740;-88.000;2024-03-02T09:22:04;99180.99;;;5.20;46.20
45991;BME280;31721;41.740;-88.000;2024-03-02T09:24:31;99179.86;;;5.14;46.28
45991;BME280;31721;41.740;-88.000;2024-03-02T09:26:59;99176.41;;;5.08;46.29
45991;BME280;31721;41.740;-88.000;2024-03-02T09:29:27;99176.05;;;5.04;46.22
45991;BME280;31721;41.740;-88.000;2024-03-02T09:31:55;99173.98;;;4.94;46.23
45991;BME280;31721;41.740;-88.000;2024-03-02T09:34:23;99169.32;;;4.85;46.29
45991;BME280;31721;41.740;-88.000;2024-03-02T09:36:51;99168.27;;;4.90;46.31
45991;BME280;31721;41.740;-88.000;2024-03-02T09:39:19;99172.50;;;4.74;46.30
45991;BME280;31721;41.740;-88.000;2024-03-02T09:41:48;99176.23;;;4.68;46.27
45991;BME280;31721;41.740;-88.000;2024-03-02T09:44:16;99172.98;;;4.69;46.35
45991;BME280;31721;41.740;-88.000;2024-03-02T09:46:44;99173.70;;;4.61;46.40
45991;BME280;31721;41.740;-88.000;2024-03-02T09:49:15;99180.44;;;4.48;46.55
45991;BME280;31721;41.740;-88.000;2024-03-02T09:51:47;99187.40;;;4.50;46.58
45991;BME280;31721;41.740;-88.000;2024-03-02T09:54:16;99185.07;;;4.43;46.66
45991;BME280;31721;41.740;-88.000;2024-03-02T09:56:44;99190.04;;;4.38;46.82
45991;BME280;31721;41.740;-88.000;2024-03-02T09:59:11;99191.61;;;4.31;46.92
45991;BME280;31721;41.740;-88.000;2024-03-02T10:01:39;99202.40;;;4.24;46.85
45991;BME280;31721;41.740;-88.000;2024-03-02T10:04:07;99205.65;;;4.21;47.31
45991;BME280;31721;41.740;-88.000;2024-03-02T10:06:35;99206.83;;;4.29;47.29
45991;BME280;31721;41.740;-88.000;2024-03-02T10:09:03;99211.81;;;4.11;47.20
45991;BME280;31721;41.740;-88.000;2024-03-02T10:11:31;99209.95;;;4.05;47.23
45991;BME280;31721;41.740;-88.000;2024-03-02T10:14:07;99207.55;;;4.09;47.29
45991;BME280;31721;41.740;-88.000;2024-03-02T10:16:36;99209.01;;;4.02;47.29
45991;BME280;31721;41.740;-88.000;2024-03-02T10:19:21;99213.11;;;3.91;47.43
45991;BME280;31721;41.740;-88.000;2024-03-02T10:21:49;99216.87;;;3.95;47.45
45991;BME280;31721;41.740;-88.000;2024-03-02T10:24:17;99223.66;;;3.83;47.60
45991;BME280;31721;41.740;-88.000;2024-03-02T10:26:45;99227.34;;;3.87;47.61
45991;BME280;31721;41.740;-88.000;2024-03-02T10:29:13;99231.85;;;3.74;47.57
45991;BME280;31721;41.740;-88.000;2024-03-02T10:31:43;99232.35;;;3.76;47.95
45991;BME280;31721;41.740;-88.000;2024-03-02T10:34:11;99231.85;;;3.73;48.02
45991;BME280;31721;41.740;-88.000;2024-03-02T10:36:42;99226.80;;;3.63;48.00
45991;BME280;31721;41.740;-88.000;2024-03-02T10:39:10;99221.25;;;3.61;47.99
45991;BME280;31721;41.740;-88.000;2024-03-02T10:41:39;99223.15;;;3.64;48.09
45991;BME280;31721;41.740;-88.000;2024-03-02T10:44:07;99226.85;;;3.56;48.14
45991;BME280;31721;41.740;-88.000;2024-03-02T10:46:36;99228.41;;;3.59;48.11
45991;BME280;31721;41.740;-88.000;2024-03-02T10:49:05;99229.50;;;3.43;48.09
45991;BME280;31721;41.740;-88.000;2024-03-02T10:51:33;99232.55;;;3.49;47.96
45991;BME280;31721;41.740;-88.000;2024-03-02T10:54:02;99231.52;;;3.45;48.11
45991;BME280;31721;41.740;-88.000;2024-03-02T10:56:31;99231.72;;;3.30;48.14
45991;BME280;31721;41.740;-88.000;2024-03-02T10:59:03;99230.36;;;3.34;48.35
45991;BME280;31721;41.740;-88.000;2024-03-02T11:01:34;99240.72;;;3.30;48.46
45991;BME280;31721;41.740;-88.000;2024-03-02T11:04:04;99249.71;;;3.23;48.31
45991;BME280;31721;41.740;-88.000;2024-03-02T11:06:36;99260.33;;;3.18;48.83
45991;BME280;31721;41.740;-88.000;2024-03-02T11:09:06;99256.14;;;3.12;48.89
45991;BME280;31721;41.740;-88.000;2024-03-02T11:11:38;99254.88;;;3.10;48.97
45991;BME280;31721;41.740;-88.000;2024-03-02T11:14:10;99259.11;;;3.09;49.04
45991;BME280;31721;41.740;-88.000;2024-03-02T11:16:38;99255.22;;;3.07;49.06
45991;BME280;31721;41.740;-88.000;2024-03-02T11:19:08;99256.23;;;3.08;49.24
45991;BME280;31721;41.740;-88.000;2024-03-02T11:21:38;99258.33;;;3.06;49.12
45991;BME280;31721;41.740;-88.000;2024-03-02T11:24:29;99257.42;;;3.04;49.11
45991;BME280;31721;41.740;-88.000;2024-03-02T11:26:57;99256.09;;;2.99;49.02
45991;BME280;31721;41.740;-88.000;2024-03-02T11:29:43;99255.45;;;2.97;49.09
45991;BME280;31721;41.740;-88.000;2024-03-02T11:32:16;99257.46;;;3.04;49.19
45991;BME280;31721;41.740;-88.000;2024-03-02T11:34:46;99251.47;;;2.91;49.17
45991;BME280;31721;41.740;-88.000;2024-03-02T11:37:15;99255.27;;;2.91;49.34
45991;BME280;31721;41.740;-88.000;2024-03-02T11:39:44;99257.50;;;2.92;49.31
45991;BME280;31721;41.740;-88.000;2024-03-02T11:42:13;99258.31;;;2.92;49.32
45991;BME280;31721;41.740;-88.000;2024-03-02T11:44:45;99263.71;;;2.88;49.36
45991;BME280;31721;41.740;-88.000;2024-03-02T11:47:14;99261.05;;;2.99;49.35
45991;BME280;31721;41.740;-88.000;2024-03-02T11:49:43;99263.93;;;2.78;49.34
45991;BME280;31721;41.740;-88.000;2024-03-02T11:52:12;99265.42;;;2.76;49.42
45991;BME280;31721;41.740;-88.000;2024-03-02T11:54:42;99265.94;;;2.85;49.58
45991;BME280;31721;41.740;-88.000;2024-03-02T11:57:10;99276.54;;;2.90;49.55
45991;BME280;31721;41.740;-88.000;2024-03-02T11:59:38;99280.25;;;2.70;49.54
45991;BME280;31721;41.740;-88.000;2024-03-02T12:02:06;99283.63;;;2.75;49.69
45991;BME280;31721;41.740;-88.000;2024-03-02T12:04:34;99283.63;;;2.77;49.63
45991;BME280;31721;41.740;-88.000;2024-03-02T12:07:02;99285.33;;;2.61;49.57
45991;BME280;31721;41.740;-88.000;2024-03-02T12:09:31;99282.31;;;2.66;49.56
45991;BME280;31721;41.740;-88.000;2024-03-02T12:12:06;99275.51;;;2.51;49.61
45991;BME280;31721;41.740;-88.000;2024-03-02T12:14:36;99274.68;;;2.42;49.67
45991;BME280;31721;41.740;-88.000;2024-03-02T12:17:05;99273.68;;;2.33;49.57
45991;BME280;31721;41.740;-88.000;2024-03-02T12:19:33;99273.79;;;2.42;49.65
45991;BME280;31721;41.740;-88.000;2024-03-02T12:22:01;99273.84;;;2.31;49.86
45991;BME280;31721;41.740;-88.000;2024-03-02T12:24:29;99269.40;;;2.27;49.76
45991;BME280;31721;41.740;-88.000;2024-03-02T12:26:58;99265.13;;;2.22;49.94
45991;BME280;31721;41.740;-88.000;2024-03-02T12:29:26;99263.50;;;2.09;49.69
45991;BME280;31721;41.740;-88.000;2024-03-02T12:31:54;99261.52;;;2.19;50.11
45991;BME280;31721;41.740;-88.000;2024-03-02T12:34:23;99262.55;;;2.05;50.22
45991;BME280;31721;41.740;-88.000;2024-03-02T12:36:50;99263.14;;;2.00;50.29
45991;BME280;31721;41.740;-88.000;2024-03-02T12:39:18;99261.90;;;1.98;50.52
45991;BME280;31721;41.740;-88.000;2024-03-02T12:41:46;99257.89;;;2.12;50.35
45991;BME280;31721;41.740;-88.000;2024-03-02T12:44:15;99255.33;;;1.99;50.49
45991;BME280;31721;41.740;-88.000;2024-03-02T12:46:43;99257.34;;;2.17;50.55
45991;BME280;31721;41.740;-88.000;2024-03-02T12:49:12;99255.34;;;2.17;50.68
45991;BME280;31721;41.740;-88.000;2024-03-02T12:51:41;99253.14;;;2.08;50.64
45991;BME280;31721;41.740;-88.000;2024-03-02T12:54:10;99259.13;;;2.18;50.82
45991;BME280;31721;41.740;-88.000;2024-03-02T12:56:38;99258.71;;;2.14;50.88